Thursday, January 18, 2018, 8:56 PM EST
Back to Local

KFZY, Fulton Oswego County Airport

Location: Fulton, NY, United States Lat: 43.35
Local Time: 8:56 PM EST ( 1:56 GMT) Lon: -76.383
Time Zone: US/Eastern Elev: 475 ft

Show me the last for .
Show Decoded

2018-01-18 19:54 METAR KFZY 190054Z AUTO 23012KT 9SM OVC019 M06/M10 A3002 RMK AO2 SLP174
                 T10561100 =
2018-01-18 18:54 METAR KFZY 182354Z AUTO 25010KT 9SM OVC024 M06/M10 A3002 RMK AO2 SLP177 60000
                 T10561100 11050 21061 53003 =
2018-01-18 17:54 METAR KFZY 182254Z AUTO 24013KT 7SM OVC027 M06/M10 A3001 RMK AO2 SLP173
                 T10561100 =
2018-01-18 17:41 METAR KFZY 182241Z AUTO 26012KT 8SM OVC029 M06/M10 A3001 RMK AO2 T10561100 =
2018-01-18 16:54 METAR KFZY 182154Z AUTO 25011KT 9SM OVC031 M05/M11 A3000 RMK AO2 SLP170
                 T10501106 =
2018-01-18 16:37 METAR KFZY 182137Z AUTO 25011G17KT 9SM OVC030 M05/M10 A3001 RMK AO2 T10501100 =
2018-01-18 15:54 METAR KFZY 182054Z AUTO 24007KT 8SM OVC025 M05/M10 A3001 RMK AO2 SLP174 60000
                 T10501100 55001 =
2018-01-18 14:54 METAR KFZY 181954Z AUTO 24008KT 9SM OVC025 M05/M11 A3000 RMK AO2 SNB11E31 SLP171
                 P0000 T10501106 =
2018-01-18 13:54 METAR KFZY 181854Z AUTO 24009KT 7SM OVC025 M06/M11 A3001 RMK AO2 SNE07 SLP173
                 P0000 T10561106 =
2018-01-18 12:54 METAR KFZY 181754Z AUTO 22010KT 4SM -SN OVC027 M06/M11 A3002 RMK AO2 SNB31
                 SLP175 P0000 60000 T10611106 11061 21156 58013 =
2018-01-18 12:01 METAR KFZY 181701Z AUTO 22013KT 10SM BKN026 OVC036 M06/M12 A3003 RMK AO2
                 T10611117 =
2018-01-18 11:54 METAR KFZY 181654Z AUTO 23011KT 9SM SCT026 OVC036 M06/M12 A3004 RMK AO2 SLP181
                 T10611117 =
2018-01-18 11:12 METAR KFZY 181612Z AUTO 22009G18KT 9SM SCT025 OVC036 M07/M12 A3005 RMK AO2
                 T10671117 =
2018-01-18 10:54 METAR KFZY 181554Z AUTO 23010KT 9SM OVC025 M07/M12 A3005 RMK AO2 SNE24 SLP187
                 P0000 T10721122 =
2018-01-18 09:54 METAR KFZY 181454Z AUTO 23009KT 4SM -SN BKN024 OVC035 M08/M13 A3006 RMK AO2
                 SNB05 SLP187 P0000 60000 T10831128 53001 =
2018-01-18 09:46 METAR KFZY 181446Z AUTO 22008KT 4SM -SN BKN026 OVC035 M09/M13 A3005 RMK AO2
                 SNB05 P0000 T10891133 =
2018-01-18 09:23 METAR KFZY 181423Z AUTO 22009KT 4SM -SN SCT026 OVC032 M09/M14 A3005 RMK AO2
                 SNB05 P0000 T10941139 =
2018-01-18 08:54 METAR KFZY 181354Z AUTO 20008KT 8SM OVC024 M10/M14 A3005 RMK AO2 SLP186
                 T11001144 =
2018-01-18 07:54 METAR KFZY 181254Z AUTO 21007KT 10SM OVC025 M11/M15 A3004 RMK AO2 SLP182
                 T11111150 =
2018-01-18 06:54 METAR KFZY 181154Z AUTO 00000KT 6SM BR OVC027 M16/M18 A3005 RMK AO2 SLP187 I6000
                 T11561178 11150 21200 56008 =
2018-01-18 06:05 METAR KFZY 181105Z AUTO 16005KT 7SM OVC029 M17/M19 A3005 RMK AO2 T11721194 =
2018-01-18 05:54 METAR KFZY 181054Z AUTO 00000KT 7SM OVC030 M18/M21 A3005 RMK AO2 SLP188
                 T11831211 =
2018-01-18 04:54 METAR KFZY 180954Z AUTO 00000KT 8SM CLR M18/M21 A3006 RMK AO2 SLP190 T11831206 =
2018-01-18 03:54 METAR KFZY 180854Z AUTO 00000KT 7SM CLR M19/M22 A3008 RMK AO2 SLP195 I3000
                 T11941217 58007 =
2018-01-18 02:54 METAR KFZY 180754Z AUTO 00000KT 6SM BR CLR M17/M19 A3010 RMK AO2 SLP201
                 T11721194 =
2018-01-18 01:54 METAR KFZY 180654Z AUTO 00000KT 8SM CLR M17/M19 A3010 RMK AO2 SLP202 I1000
                 T11721194 =
2018-01-18 00:54 METAR KFZY 180554Z AUTO 17003KT 8SM CLR M16/M18 A3010 RMK AO2 SLP202 I1000 I6000
                 T11611178 11089 21161 58021 =
2018-01-17 23:54 METAR KFZY 180454Z AUTO 00000KT 8SM CLR M15/M17 A3013 RMK AO2 SLP212 T11501167
                 410391150 =
2018-01-17 22:54 METAR KFZY 180354Z AUTO 16003KT 9SM CLR M14/M16 A3014 RMK AO2 SLP215 T11391156 =
2018-01-17 21:54 METAR KFZY 180254Z AUTO 19004KT 10SM CLR M11/M14 A3016 RMK AO2 SLP223 T11061144
                 58026 =

Support USWX by starting your Amazon purchase here.